Terminal Aerodrome Forecast
Issued by NWS Charleston, WV

Current Version | Previous Version | Text Only | Print | Product List | Glossary Off
Versions: 1 2 3 4 5 6 7 8 9 10 11 12 13 14 15 16 17 18 19 20

000
FTUS41 KRLX 261731
TAFHTS
TAF
KHTS 261731Z 2618/2718 20007KT P6SM BKN050
     FM262100 22006KT P6SM VCTS BKN050CB
     FM270100 VRB03KT P6SM SCT050
     FM270400 00000KT P6SM BKN250
     FM270900 00000KT 4SM HZ SCT080
     FM271300 VRB03KT P6SM SCT070=

USA.gov is the U.S. government's official web portal to all federal, state and local government web resources and services.